createdAt,value
2022-12-22T00:02:00.348Z,18.03
2022-12-22T00:04:46.060Z,24.63
2022-12-22T00:07:32.015Z,26.80
2022-12-22T00:10:18.025Z,20.57
2022-12-22T00:13:05.662Z,14.47
2022-12-22T00:15:53.834Z,24.83
2022-12-22T00:18:40.453Z,26.23
2022-12-22T00:21:29.331Z,23.57
2022-12-22T00:24:16.142Z,19.83
2022-12-22T00:27:02.823Z,11.70
2022-12-22T00:29:55.903Z,3.27
2022-12-22T00:32:42.275Z,17.43
2022-12-22T00:35:32.238Z,14.20
2022-12-22T00:38:17.985Z,8.83
2022-12-22T00:41:03.559Z,13.53
2022-12-22T00:43:49.261Z,13.00
2022-12-22T00:46:38.017Z,9.57
2022-12-22T00:49:24.014Z,9.60
2022-12-22T00:52:10.037Z,12.63
2022-12-22T00:54:56.377Z,6.80
2022-12-22T00:57:46.935Z,2.77
2022-12-22T01:00:35.845Z,13.70
2022-12-22T01:03:23.902Z,13.03
2022-12-22T01:06:09.728Z,10.10
2022-12-22T01:08:55.228Z,8.10
2022-12-22T01:11:40.976Z,16.97
2022-12-22T01:14:29.235Z,8.67
2022-12-22T01:17:14.735Z,5.30
2022-12-22T01:20:01.617Z,22.30
2022-12-22T01:22:48.096Z,14.40
2022-12-22T01:25:36.059Z,13.90
2022-12-22T01:28:22.584Z,13.13
2022-12-22T01:31:08.962Z,7.03
2022-12-22T01:33:54.553Z,15.60
2022-12-22T01:36:41.914Z,8.33
2022-12-22T01:39:27.963Z,13.23
2022-12-22T01:42:13.852Z,11.57
2022-12-22T01:44:59.660Z,8.43
2022-12-22T01:47:52.239Z,5.87
2022-12-22T01:50:47.231Z,11.50
2022-12-22T01:53:38.922Z,9.03
2022-12-22T01:56:25.754Z,9.73
2022-12-22T01:59:13.947Z,10.63
2022-12-22T02:02:00.719Z,12.57
2022-12-22T02:04:52.744Z,5.13
2022-12-22T02:08:02.669Z,11.07
2022-12-22T02:11:18.439Z,9.50
2022-12-22T02:14:16.124Z,4.90
2022-12-22T02:17:09.530Z,6.73
2022-12-22T02:20:23.439Z,4.03
2022-12-22T02:23:16.954Z,8.60
2022-12-22T02:26:09.390Z,3.13
2022-12-22T02:28:57.702Z,9.70
2022-12-22T02:31:43.448Z,5.10
2022-12-22T02:34:32.302Z,5.73
2022-12-22T02:37:27.030Z,11.67
2022-12-22T02:40:20.428Z,9.30
2022-12-22T02:43:16.299Z,8.97
2022-12-22T02:46:09.302Z,8.97
2022-12-22T02:49:00.992Z,6.93
2022-12-22T02:51:48.906Z,11.00
2022-12-22T02:54:36.448Z,9.00
2022-12-22T02:57:22.540Z,5.60
2022-12-22T03:00:08.136Z,10.40
2022-12-22T03:02:56.017Z,7.47
2022-12-22T03:05:41.686Z,7.37
2022-12-22T03:08:27.441Z,7.67
2022-12-22T03:11:13.030Z,11.97
2022-12-22T03:13:59.024Z,8.20
2022-12-22T03:16:44.884Z,12.07
2022-12-22T03:19:33.007Z,3.23
2022-12-22T03:22:18.381Z,7.17
2022-12-22T03:25:04.140Z,6.30
2022-12-22T03:27:32.435Z,8.17
2022-12-22T03:30:00.792Z,13.33
2022-12-22T03:32:29.218Z,9.47
2022-12-22T03:34:58.723Z,3.80
2022-12-22T03:37:27.423Z,3.30
2022-12-22T03:39:55.888Z,11.97
2022-12-22T03:42:41.494Z,9.40
2022-12-22T03:45:29.020Z,15.00
2022-12-22T03:47:57.281Z,13.47
2022-12-22T03:50:27.321Z,7.43
2022-12-22T03:52:55.442Z,6.63
2022-12-22T03:55:23.586Z,4.17
2022-12-22T03:57:52.278Z,3.87
2022-12-22T04:00:21.375Z,4.63
2022-12-22T04:02:49.690Z,6.13
2022-12-22T04:05:18.494Z,11.03
2022-12-22T04:07:48.227Z,3.47
2022-12-22T04:10:33.976Z,1.83
2022-12-22T04:13:02.484Z,7.40
2022-12-22T04:15:33.064Z,8.07
2022-12-22T04:18:01.752Z,5.50
2022-12-22T04:20:30.751Z,3.87
2022-12-22T04:23:00.392Z,9.80
2022-12-22T04:25:29.717Z,3.90
2022-12-22T04:27:58.582Z,3.43
2022-12-22T04:30:26.747Z,7.93
2022-12-22T04:32:54.929Z,4.30
2022-12-22T04:35:23.237Z,6.73
2022-12-22T04:37:51.474Z,4.93
2022-12-22T04:40:21.237Z,7.40
2022-12-22T04:42:49.868Z,2.47
2022-12-22T04:45:18.161Z,5.50
2022-12-22T04:47:46.602Z,14.23
2022-12-22T04:50:15.241Z,10.30
2022-12-22T04:52:43.528Z,4.67
2022-12-22T04:55:11.955Z,5.10
2022-12-22T04:57:41.945Z,11.57
2022-12-22T05:00:11.899Z,7.47
2022-12-22T05:02:40.634Z,4.33
2022-12-22T05:05:10.419Z,6.07
2022-12-22T05:07:38.767Z,7.30
2022-12-22T05:10:07.771Z,8.93
2022-12-22T05:12:53.448Z,12.73
2022-12-22T05:15:23.782Z,6.67
2022-12-22T05:17:52.018Z,8.60
2022-12-22T05:20:21.179Z,6.63
2022-12-22T05:22:49.731Z,6.23
2022-12-22T05:25:18.334Z,10.33
2022-12-22T05:27:46.778Z,3.60
2022-12-22T05:30:16.356Z,10.60
2022-12-22T05:32:45.865Z,5.97
2022-12-22T05:35:14.413Z,4.27
2022-12-22T05:37:42.864Z,2.93
2022-12-22T05:40:13.053Z,5.70
2022-12-22T05:42:41.586Z,4.00
2022-12-22T05:45:15.048Z,10.17
2022-12-22T05:47:44.099Z,8.10
2022-12-22T05:50:15.859Z,6.67
2022-12-22T05:52:44.626Z,4.57
2022-12-22T05:55:14.345Z,12.93
2022-12-22T05:57:43.060Z,10.07
2022-12-22T06:00:15.918Z,6.30
2022-12-22T06:02:45.133Z,5.03
2022-12-22T06:05:16.303Z,7.00
2022-12-22T06:07:45.000Z,5.07
2022-12-22T06:10:13.873Z,10.07
2022-12-22T06:12:42.672Z,11.47
2022-12-22T06:15:14.077Z,4.57
2022-12-22T06:17:45.089Z,8.30
2022-12-22T06:20:16.168Z,5.20
2022-12-22T06:22:44.375Z,8.43
2022-12-22T06:25:18.243Z,6.37
2022-12-22T06:27:48.045Z,6.50
2022-12-22T06:30:16.771Z,5.77
2022-12-22T06:32:45.075Z,2.83
2022-12-22T06:35:15.362Z,5.33
2022-12-22T06:37:43.571Z,13.53
2022-12-22T06:40:12.380Z,7.63
2022-12-22T06:43:02.307Z,4.73
2022-12-22T06:45:34.211Z,4.27
2022-12-22T06:48:03.008Z,9.87
2022-12-22T06:50:32.572Z,3.93
2022-12-22T06:53:00.899Z,10.60
2022-12-22T06:55:29.841Z,8.80
2022-12-22T06:57:58.055Z,2.77
2022-12-22T07:00:26.636Z,2.80
2022-12-22T07:02:56.205Z,9.10
2022-12-22T07:05:25.132Z,4.80
2022-12-22T07:07:55.017Z,6.53
2022-12-22T07:10:44.987Z,6.87
2022-12-22T07:13:24.283Z,2.73
2022-12-22T07:16:00.043Z,6.30
2022-12-22T07:18:31.215Z,11.73
2022-12-22T07:21:01.395Z,5.63
2022-12-22T07:23:31.663Z,6.87
2022-12-22T07:26:00.175Z,5.53
2022-12-22T07:28:29.049Z,3.97
2022-12-22T07:30:57.512Z,2.53
2022-12-22T07:33:25.823Z,4.83
2022-12-22T07:36:04.326Z,3.80
2022-12-22T07:38:39.000Z,3.20
2022-12-22T07:41:29.347Z,7.47
2022-12-22T07:43:58.256Z,3.87
2022-12-22T07:46:28.479Z,5.07
2022-12-22T07:49:14.589Z,6.97
2022-12-22T07:51:43.930Z,6.00
2022-12-22T07:54:16.043Z,5.77
2022-12-22T07:56:45.287Z,5.00
2022-12-22T07:59:14.311Z,10.03
2022-12-22T08:01:42.908Z,5.87
2022-12-22T08:04:11.661Z,4.27
2022-12-22T08:06:40.342Z,3.73
2022-12-22T08:09:09.994Z,6.07
2022-12-22T08:11:39.647Z,6.73
2022-12-22T08:14:08.473Z,13.43
2022-12-22T08:16:36.822Z,7.03
2022-12-22T08:19:05.072Z,5.73
2022-12-22T08:21:33.663Z,13.93
2022-12-22T08:24:01.995Z,12.37
2022-12-22T08:26:35.216Z,7.60
2022-12-22T08:29:09.346Z,6.10
2022-12-22T08:31:37.771Z,4.93
2022-12-22T08:34:08.322Z,6.87
2022-12-22T08:36:41.403Z,6.63
2022-12-22T08:39:09.847Z,10.83
2022-12-22T08:41:53.796Z,3.57
2022-12-22T08:44:25.745Z,4.40
2022-12-22T08:46:55.836Z,5.93
2022-12-22T08:49:24.598Z,6.53
2022-12-22T08:51:53.726Z,6.57
2022-12-22T08:54:22.428Z,7.80
2022-12-22T08:56:51.275Z,12.17
2022-12-22T08:59:19.661Z,4.40
2022-12-22T09:01:51.182Z,10.40
2022-12-22T09:04:22.237Z,7.20
2022-12-22T09:06:53.377Z,4.20
2022-12-22T09:09:22.067Z,5.70
2022-12-22T09:11:50.910Z,8.27
2022-12-22T09:14:19.974Z,10.77
2022-12-22T09:16:50.502Z,16.00
2022-12-22T09:19:18.887Z,14.00
2022-12-22T09:21:47.505Z,5.47
2022-12-22T09:24:15.976Z,16.43
2022-12-22T09:26:44.334Z,2.67
2022-12-22T09:29:16.003Z,6.37
2022-12-22T09:31:45.074Z,6.43
2022-12-22T09:34:18.174Z,4.77
2022-12-22T09:36:47.669Z,15.47
2022-12-22T09:39:17.079Z,9.10
2022-12-22T09:41:48.715Z,12.07
2022-12-22T09:44:25.463Z,2.83
2022-12-22T09:46:55.499Z,9.27
2022-12-22T09:49:25.358Z,6.60
2022-12-22T09:51:56.761Z,8.17
2022-12-22T09:54:27.180Z,6.37
2022-12-22T09:56:55.383Z,11.43
2022-12-22T09:59:27.726Z,10.93
2022-12-22T10:02:11.420Z,10.63
2022-12-22T10:04:55.350Z,8.33
2022-12-22T10:07:34.559Z,6.43
2022-12-22T10:10:08.395Z,7.77
2022-12-22T10:12:36.660Z,6.50
2022-12-22T10:15:05.725Z,15.10
2022-12-22T10:17:35.947Z,3.87
2022-12-22T10:20:21.087Z,8.47
2022-12-22T10:22:53.274Z,6.57
2022-12-22T10:26:00.046Z,9.43
2022-12-22T10:28:24.572Z,7.63
2022-12-22T10:31:11.678Z,5.40
2022-12-22T10:33:46.402Z,8.53
2022-12-22T10:36:16.437Z,8.83
2022-12-22T10:38:59.019Z,20.47
2022-12-22T10:41:29.852Z,3.33
2022-12-22T10:44:00.767Z,4.40
2022-12-22T10:46:35.479Z,12.47
2022-12-22T10:49:14.105Z,8.47
2022-12-22T10:51:44.068Z,11.30
2022-12-22T10:54:29.477Z,10.00
2022-12-22T10:57:03.043Z,5.83
2022-12-22T10:59:32.032Z,6.53
2022-12-22T11:02:37.893Z,7.80
2022-12-22T11:05:09.264Z,8.13
2022-12-22T11:07:39.725Z,16.63
2022-12-22T11:10:20.103Z,6.97
2022-12-22T11:13:10.371Z,10.93
2022-12-22T11:15:46.285Z,4.27
2022-12-22T11:18:26.309Z,6.53
2022-12-22T11:21:02.624Z,14.10
2022-12-22T11:23:37.586Z,8.60
2022-12-22T11:26:16.781Z,7.53
2022-12-22T11:29:03.138Z,11.30
2022-12-22T11:31:50.115Z,11.83
2022-12-22T11:34:33.711Z,4.07
2022-12-22T11:37:13.025Z,7.97
2022-12-22T11:39:46.948Z,7.30
2022-12-22T11:42:32.206Z,7.17
2022-12-22T11:45:11.073Z,9.57
2022-12-22T11:47:47.172Z,7.77
2022-12-22T11:51:02.054Z,7.33
2022-12-22T11:53:53.014Z,11.17
2022-12-22T11:56:25.375Z,4.87
2022-12-22T11:59:17.931Z,12.00
2022-12-22T12:02:18.126Z,14.17
2022-12-22T12:05:24.355Z,7.17
2022-12-22T12:07:56.081Z,4.10
2022-12-22T12:10:28.074Z,8.90
2022-12-22T12:13:04.993Z,8.47
2022-12-22T12:15:38.651Z,6.57
2022-12-22T12:18:31.838Z,12.57
2022-12-22T12:21:10.401Z,11.63
2022-12-22T12:23:55.863Z,7.20
2022-12-22T12:26:29.007Z,10.73
2022-12-22T12:29:11.264Z,8.03
2022-12-22T12:31:46.647Z,5.43
2022-12-22T12:34:18.530Z,9.90
2022-12-22T12:36:51.771Z,9.80
2022-12-22T12:39:26.404Z,10.10
2022-12-22T12:42:02.789Z,15.53
2022-12-22T12:44:35.534Z,4.10
2022-12-22T12:47:23.189Z,11.57
2022-12-22T12:50:02.172Z,13.03
2022-12-22T12:53:17.871Z,15.87
2022-12-22T12:56:10.364Z,10.13
2022-12-22T12:58:55.990Z,10.70
2022-12-22T13:02:01.367Z,14.40
2022-12-22T13:05:10.981Z,6.90
2022-12-22T13:08:14.629Z,7.37
2022-12-22T13:10:48.941Z,9.23
2022-12-22T13:13:46.692Z,15.50
2022-12-22T13:16:28.600Z,3.27
2022-12-22T13:19:00.007Z,4.00
2022-12-22T13:21:55.046Z,6.60
2022-12-22T13:24:29.836Z,6.37
2022-12-22T13:27:07.210Z,8.00
2022-12-22T13:29:44.289Z,6.67
2022-12-22T13:32:26.690Z,12.87
2022-12-22T13:35:30.210Z,8.87
2022-12-22T13:37:54.121Z,8.70
2022-12-22T13:40:25.967Z,7.67
2022-12-22T13:42:57.188Z,10.03
2022-12-22T13:45:36.845Z,10.17
2022-12-22T13:48:10.514Z,9.77
2022-12-22T13:50:43.911Z,9.20
2022-12-22T13:53:34.344Z,7.00
2022-12-22T13:56:09.634Z,6.10
2022-12-22T13:58:40.753Z,11.00
2022-12-22T14:01:18.204Z,8.03
2022-12-22T14:04:01.509Z,9.40
2022-12-22T14:06:32.522Z,13.33
2022-12-22T14:09:15.107Z,16.33
2022-12-22T14:11:51.446Z,10.47
2022-12-22T14:14:24.145Z,10.47
2022-12-22T14:16:55.228Z,11.03
2022-12-22T14:19:25.104Z,11.50
2022-12-22T14:22:05.556Z,6.17
2022-12-22T14:24:39.000Z,6.90
2022-12-22T14:27:18.791Z,8.30
2022-12-22T14:29:47.334Z,14.37
2022-12-22T14:32:39.122Z,14.93
2022-12-22T14:35:29.297Z,14.63
2022-12-22T14:38:17.778Z,10.57
2022-12-22T14:40:51.091Z,16.40
2022-12-22T14:43:29.727Z,11.97
2022-12-22T14:46:07.515Z,15.47
2022-12-22T14:48:38.915Z,11.43
2022-12-22T14:51:07.749Z,11.43
2022-12-22T14:53:44.850Z,7.13
2022-12-22T14:56:14.525Z,9.13
2022-12-22T14:58:45.768Z,12.17
2022-12-22T15:01:18.262Z,8.77
2022-12-22T15:03:57.605Z,10.50
2022-12-22T15:06:35.474Z,10.93
2022-12-22T15:10:12.618Z,11.77
2022-12-22T15:12:19.015Z,8.00
2022-12-22T15:14:50.036Z,7.17
2022-12-22T15:17:23.611Z,5.80
2022-12-22T15:19:53.354Z,5.23
2022-12-22T15:22:21.623Z,9.97
2022-12-22T15:24:49.799Z,9.83
2022-12-22T15:27:18.180Z,8.97
2022-12-22T15:29:46.366Z,12.70
2022-12-22T15:32:16.264Z,8.67
2022-12-22T15:34:45.585Z,11.07
2022-12-22T15:37:13.849Z,18.03
2022-12-22T15:39:42.104Z,10.87
2022-12-22T15:42:10.382Z,12.57
2022-12-22T15:44:38.972Z,7.77
2022-12-22T15:47:11.925Z,7.77
2022-12-22T15:49:41.867Z,9.40
2022-12-22T15:52:13.256Z,13.73
2022-12-22T15:54:41.726Z,9.37
2022-12-22T15:57:14.111Z,14.23
2022-12-22T15:59:42.638Z,7.43
2022-12-22T16:02:13.093Z,8.00
2022-12-22T16:04:43.464Z,13.43
2022-12-22T16:07:12.693Z,12.73
2022-12-22T16:09:43.721Z,7.40
2022-12-22T16:12:14.615Z,8.77
2022-12-22T16:14:49.716Z,12.53
2022-12-22T16:17:20.185Z,5.50
2022-12-22T16:19:50.093Z,6.93
2022-12-22T16:22:21.293Z,23.57
2022-12-22T16:24:51.329Z,14.63
2022-12-22T16:27:19.949Z,13.93
2022-12-22T16:29:52.903Z,12.50
2022-12-22T16:32:25.448Z,15.30
2022-12-22T16:34:55.792Z,14.23
2022-12-22T16:37:24.419Z,18.17
2022-12-22T16:39:52.595Z,8.87
2022-12-22T16:45:16.132Z,8.07
2022-12-22T16:47:44.397Z,13.40
2022-12-22T16:50:20.325Z,17.73
2022-12-22T16:52:50.034Z,12.00
2022-12-22T16:55:20.566Z,19.43
2022-12-22T16:57:49.821Z,11.17
2022-12-22T17:00:19.998Z,16.93
2022-12-22T17:02:52.447Z,12.87
2022-12-22T17:05:27.775Z,9.03
2022-12-22T17:07:57.670Z,12.00
2022-12-22T17:10:26.319Z,12.43
2022-12-22T17:12:58.802Z,12.20
2022-12-22T17:15:27.212Z,14.70
2022-12-22T17:17:55.407Z,13.47
2022-12-22T17:20:29.119Z,19.10
2022-12-22T17:22:59.843Z,15.47
2022-12-22T17:25:31.008Z,8.60
2022-12-22T17:28:02.093Z,8.83
2022-12-22T17:30:30.715Z,10.63
2022-12-22T17:32:59.161Z,11.13
2022-12-22T17:35:29.136Z,15.07
2022-12-22T17:37:57.614Z,20.07
2022-12-22T17:40:30.943Z,15.57
2022-12-22T17:42:59.446Z,17.17
2022-12-22T17:45:28.241Z,15.77
2022-12-22T17:47:56.887Z,15.83
2022-12-22T17:50:25.264Z,16.97
2022-12-22T17:52:55.460Z,19.30
2022-12-22T17:56:01.236Z,15.73
2022-12-22T17:58:15.993Z,12.73
2022-12-22T18:00:45.766Z,20.47
2022-12-22T18:03:14.628Z,12.97
2022-12-22T18:05:49.095Z,14.23
2022-12-22T18:08:21.376Z,19.07
2022-12-22T18:10:50.606Z,13.30
2022-12-22T18:13:22.673Z,22.83
2022-12-22T18:15:51.284Z,20.33
2022-12-22T18:18:21.251Z,19.57
2022-12-22T18:21:07.083Z,12.27
2022-12-22T18:23:41.018Z,15.80
2022-12-22T18:26:19.588Z,23.73
2022-12-22T18:28:48.466Z,20.87
2022-12-22T18:31:16.696Z,14.93
2022-12-22T18:33:44.903Z,22.83
2022-12-22T18:36:21.965Z,20.90
2022-12-22T18:38:51.772Z,19.83
2022-12-22T18:41:23.149Z,20.00
2022-12-22T18:43:51.731Z,12.00
2022-12-22T18:46:20.452Z,20.10
2022-12-22T18:48:49.279Z,23.77
2022-12-22T18:51:20.822Z,14.50
2022-12-22T18:53:49.668Z,24.27
2022-12-22T18:56:19.790Z,20.97
2022-12-22T18:58:48.179Z,25.17
2022-12-22T19:01:21.735Z,31.60
2022-12-22T19:03:50.871Z,21.23
2022-12-22T19:06:22.199Z,19.20
2022-12-22T19:08:50.619Z,15.33
2022-12-22T19:11:24.976Z,16.97
2022-12-22T19:13:54.210Z,13.57
2022-12-22T19:16:26.409Z,27.00
2022-12-22T19:18:54.924Z,22.53
2022-12-22T19:21:23.470Z,21.70
2022-12-22T19:23:51.971Z,20.97
2022-12-22T19:26:24.173Z,18.23
2022-12-22T19:28:55.428Z,32.77
2022-12-22T19:31:26.422Z,27.17
2022-12-22T19:33:58.641Z,19.30
2022-12-22T19:36:29.898Z,21.80
2022-12-22T19:39:05.531Z,20.70
2022-12-22T19:41:41.879Z,21.83
2022-12-22T19:44:21.906Z,27.37
2022-12-22T19:46:50.918Z,17.27
2022-12-22T19:49:21.765Z,28.17
2022-12-22T19:51:50.684Z,18.70
2022-12-22T19:54:19.582Z,28.90
2022-12-22T19:56:52.935Z,29.17
2022-12-22T19:59:30.910Z,21.40
2022-12-22T20:02:01.668Z,18.27
2022-12-22T20:04:30.161Z,21.37
2022-12-22T20:06:58.428Z,30.43
2022-12-22T20:09:26.693Z,30.37
2022-12-22T20:11:56.279Z,20.07
2022-12-22T20:14:24.337Z,26.87
2022-12-22T20:16:53.070Z,22.93
2022-12-22T20:19:21.180Z,21.63
2022-12-22T20:21:49.317Z,20.83
2022-12-22T20:24:22.758Z,17.40
2022-12-22T20:26:54.577Z,30.40
2022-12-22T20:29:26.085Z,24.27
2022-12-22T20:31:54.380Z,27.10
2022-12-22T20:34:22.741Z,25.40
2022-12-22T20:36:51.436Z,20.90
2022-12-22T20:39:20.675Z,17.43
2022-12-22T20:41:53.526Z,30.93
2022-12-22T20:44:24.780Z,25.13
2022-12-22T20:46:53.098Z,17.07
2022-12-22T20:49:21.283Z,22.30
2022-12-22T20:51:49.686Z,18.13
2022-12-22T20:54:18.343Z,23.90
2022-12-22T20:56:47.190Z,29.37
2022-12-22T20:59:18.008Z,24.40
2022-12-22T21:01:48.890Z,17.20
2022-12-22T21:04:18.363Z,20.77
2022-12-22T21:06:49.740Z,19.60
2022-12-22T21:09:18.460Z,25.37
2022-12-22T21:11:46.868Z,17.17
2022-12-22T21:14:15.680Z,15.90
2022-12-22T21:16:44.466Z,27.90
2022-12-22T21:19:20.303Z,26.20
2022-12-22T21:21:48.544Z,21.70
2022-12-22T21:24:18.631Z,20.53
2022-12-22T21:26:50.553Z,20.70
2022-12-22T21:29:21.850Z,15.53
2022-12-22T21:31:50.758Z,16.83
2022-12-22T21:34:20.688Z,18.17
2022-12-22T21:36:52.634Z,26.67
2022-12-22T21:39:28.765Z,22.23
2022-12-22T21:42:04.540Z,16.10
2022-12-22T21:44:35.893Z,18.20
2022-12-22T21:47:04.755Z,28.23
2022-12-22T21:49:34.919Z,22.47
2022-12-22T21:52:03.123Z,17.07
2022-12-22T21:54:31.380Z,25.20
2022-12-22T21:56:59.978Z,27.90
2022-12-22T21:59:28.756Z,20.37
2022-12-22T22:01:57.467Z,26.73
2022-12-22T22:04:26.084Z,19.20
2022-12-22T22:06:55.907Z,24.20
2022-12-22T22:09:24.021Z,24.07
2022-12-22T22:12:09.880Z,21.10
2022-12-22T22:14:38.712Z,23.20
2022-12-22T22:17:07.016Z,18.60
2022-12-22T22:19:35.260Z,16.23
2022-12-22T22:22:05.486Z,15.10
2022-12-22T22:24:33.897Z,16.20
2022-12-22T22:27:02.395Z,17.83
2022-12-22T22:29:30.550Z,21.57
2022-12-22T22:31:58.914Z,20.53
2022-12-22T22:34:27.454Z,13.97
2022-12-22T22:36:55.564Z,20.90
2022-12-22T22:39:25.902Z,18.23
2022-12-22T22:41:54.375Z,19.13
2022-12-22T22:44:22.627Z,13.47
2022-12-22T22:46:51.353Z,16.83
2022-12-22T22:49:26.142Z,24.30
2022-12-22T22:51:57.089Z,26.23
2022-12-22T22:54:26.708Z,17.83
2022-12-22T22:56:54.821Z,15.70
2022-12-22T22:59:23.573Z,22.57
2022-12-22T23:01:52.207Z,21.27
2022-12-22T23:04:20.555Z,13.87
2022-12-22T23:06:49.018Z,17.70
2022-12-22T23:09:17.323Z,21.50
2022-12-22T23:11:46.999Z,18.17
2022-12-22T23:14:15.645Z,14.37
2022-12-22T23:16:44.238Z,23.77
2022-12-22T23:19:12.507Z,14.07
2022-12-22T23:21:41.224Z,19.27
2022-12-22T23:24:10.450Z,18.00
2022-12-22T23:26:38.774Z,14.07
2022-12-22T23:29:08.469Z,17.43
2022-12-22T23:31:37.398Z,24.70
2022-12-22T23:34:05.803Z,13.93
2022-12-22T23:36:34.178Z,14.00
2022-12-22T23:39:02.417Z,17.77
2022-12-22T23:41:30.728Z,17.50
2022-12-22T23:43:59.575Z,16.30
2022-12-22T23:46:29.560Z,18.37
2022-12-22T23:48:59.537Z,13.90
2022-12-22T23:51:29.113Z,22.33
2022-12-22T23:53:59.591Z,26.27
2022-12-22T23:56:27.920Z,16.60
2022-12-22T23:58:56.605Z,25.20
